Terminal Aerodrome Forecast
Issued by NWS

Home | Current Version | Previous Version | Text Only | Print | Product List | Glossary On
Versions: 1 2 3 4 5 6 7 8 9 10 11 12 13 14 15 16 17 18 19 20 21 22 23 24 25 26 27 28 29 30
000
FTUS43 KDLH 171009 AAD
TAFHIB
TAF AMD
KHIB 171009Z 1710/1806 00000KT 6SM BR SCT001
     FM171400 00000KT 3SM BR SCT005
     FM171800 22004KT P6SM SKC
     FM180000 19003KT P6SM SKC=

USA.gov is the U.S. government's official web portal to all federal, state and local government web resources and services.